Time;durP1;ratioP1;P1;durP2;ratioP2;P2;SDS_P1;SDS_P2;PMS_P1;PMS_P2;Temp;Humidity;BMP_temperature;BMP_pressure;BME280_temperature;BME280_humidity;BME280_pressure;Samples;Min_cycle;Max_cycle;Signal;HPM_P1;HPM_P2
2022/06/18 05:13:24;;;;;;;1.60;1.50;;;20.50;99.90;;;;;;7403173;19;20352;-81
2022/06/18 05:16:04;;;;;;;1.30;1.20;;;20.60;99.90;;;;;;7374466;19;20740;-82
2022/06/18 05:18:32;;;;;;;1.77;1.30;;;20.80;99.90;;;;;;7376473;19;20341;-80
2022/06/18 05:20:58;;;;;;;1.50;1.40;;;21.00;99.90;;;;;;7380157;19;20332;-80
2022/06/18 05:23:26;;;;;;;2.15;1.40;;;21.10;99.90;;;;;;7381313;19;21640;-81
2022/06/18 05:25:55;;;;;;;1.52;1.30;;;21.20;99.90;;;;;;7387110;19;20325;-78
2022/06/18 05:28:21;;;;;;;1.40;1.30;;;21.40;99.90;;;;;;7392106;19;20333;-81
2022/06/18 05:30:46;;;;;;;3.55;1.30;;;21.60;99.90;;;;;;7387998;19;20365;-85
2022/06/18 05:33:12;;;;;;;3.50;1.50;;;21.70;99.90;;;;;;7397540;19;20719;-80
2022/06/18 05:35:44;;;;;;;1.90;1.80;;;21.80;99.90;;;;;;7288658;19;2004628;-83
2022/06/18 05:38:15;;;;;;;2.95;1.55;;;21.90;99.90;;;;;;7402387;19;20348;-81
2022/06/18 05:40:41;;;;;;;1.30;1.20;;;22.00;99.90;;;;;;7395741;19;20304;-84
2022/06/18 05:43:06;;;;;;;1.37;1.27;;;22.20;99.90;;;;;;7399734;19;20460;-84
2022/06/18 05:45:32;;;;;;;1.73;1.43;;;22.30;99.90;;;;;;7398293;19;20348;-87
2022/06/18 05:47:58;;;;;;;1.35;1.27;;;22.40;99.90;;;;;;7401761;19;20345;-84
2022/06/18 05:50:25;;;;;;;1.70;1.30;;;22.60;99.90;;;;;;7401949;19;20331;-88
2022/06/18 05:52:51;;;;;;;1.65;1.35;;;22.80;99.90;;;;;;7403320;19;20340;-85
2022/06/18 05:55:42;;;;;;;1.20;1.10;;;22.90;99.90;;;;;;7399881;19;20340;-82
2022/06/18 05:58:32;;;;;;;1.60;1.30;;;23.20;99.90;;;;;;7293726;19;2004727;-83
2022/06/18 06:01:04;;;;;;;1.17;1.10;;;23.30;99.90;;;;;;7390202;19;20317;-83
2022/06/18 06:03:31;;;;;;;1.27;1.20;;;23.50;99.90;;;;;;7389254;19;20881;-81
2022/06/18 06:05:56;;;;;;;1.10;1.10;;;23.60;99.90;;;;;;7391301;19;20316;-79
2022/06/18 06:08:22;;;;;;;1.20;1.10;;;23.70;99.90;;;;;;7384499;19;20335;-81
2022/06/18 06:13:34;;;;;;;1.25;1.15;;;24.00;99.90;;;;;;7387357;19;20309;-81
2022/06/18 06:16:01;;;;;;;1.27;1.17;;;24.20;99.90;;;;;;7381484;19;20385;-82
2022/06/18 06:18:27;;;;;;;1.30;1.20;;;24.30;99.90;;;;;;7382248;19;20856;-80
2022/06/18 06:20:54;;;;;;;2.30;1.10;;;24.40;99.90;;;;;;7381564;19;20336;-82
2022/06/18 06:23:20;;;;;;;2.23;1.20;;;24.60;99.90;;;;;;7377694;19;20356;-78
2022/06/18 06:25:46;;;;;;;1.00;1.00;;;24.80;99.90;;;;;;7385432;19;20337;-81
2022/06/18 06:28:26;;;;;;;1.05;1.02;;;25.10;99.90;;;;;;7390736;19;20349;-81
2022/06/18 06:30:52;;;;;;;1.40;1.30;;;25.20;98.60;;;;;;7283144;19;2004355;-78
2022/06/18 06:33:18;;;;;;;1.20;1.10;;;25.30;98.00;;;;;;7383239;19;20368;-80
2022/06/18 06:35:45;;;;;;;1.00;1.00;;;25.40;98.00;;;;;;7384106;19;20336;-84
2022/06/18 06:38:11;;;;;;;1.10;1.10;;;25.60;97.50;;;;;;7383827;19;20341;-79
2022/06/18 06:40:37;;;;;;;1.13;1.02;;;25.70;96.50;;;;;;7378428;19;20325;-84
2022/06/18 06:43:04;;;;;;;1.17;1.05;;;25.90;96.90;;;;;;7276291;19;2004589;-85
2022/06/18 06:45:31;;;;;;;3.08;0.90;;;26.10;95.50;;;;;;7360698;19;20349;-79
2022/06/18 06:47:57;;;;;;;1.17;1.13;;;26.30;95.00;;;;;;7385950;19;20404;-77
2022/06/18 06:50:24;;;;;;;0.98;0.98;;;26.40;94.10;;;;;;7377377;19;20380;-78
2022/06/18 06:52:50;;;;;;;0.90;0.90;;;26.50;93.50;;;;;;7379811;19;20440;-77
2022/06/18 06:58:11;;;;;;;1.10;1.10;;;26.80;93.10;;;;;;7401538;19;20436;-81
2022/06/18 07:00:42;;;;;;;2.08;1.33;;;27.00;92.30;;;;;;7381484;19;20348;-77
2022/06/18 07:03:26;;;;;;;1.10;1.10;;;27.00;91.80;;;;;;7386962;19;20336;-81
2022/06/18 07:05:54;;;;;;;1.45;1.35;;;27.30;91.40;;;;;;7276451;19;2004349;-78
2022/06/18 07:08:20;;;;;;;1.30;1.20;;;27.50;90.60;;;;;;7394154;19;21007;-78
2022/06/18 07:10:48;;;;;;;1.20;1.10;;;27.70;90.60;;;;;;7382400;19;20841;-78
2022/06/18 07:13:14;;;;;;;0.90;0.90;;;27.70;90.30;;;;;;7387970;19;20349;-78
2022/06/18 07:15:40;;;;;;;1.00;1.00;;;27.90;89.80;;;;;;7340774;19;20341;-78
2022/06/18 07:18:31;;;;;;;1.10;1.00;;;28.10;89.50;;;;;;7388966;19;20333;-77
2022/06/18 07:20:57;;;;;;;1.58;0.90;;;28.30;89.10;;;;;;7403683;19;20340;-77
2022/06/18 07:23:23;;;;;;;0.90;0.90;;;28.40;88.20;;;;;;7391625;19;20368;-78
2022/06/18 07:25:48;;;;;;;1.63;1.00;;;28.60;86.90;;;;;;7390624;19;20352;-78
2022/06/18 07:28:14;;;;;;;4.10;1.20;;;28.80;85.60;;;;;;7396727;19;20370;-78
2022/06/18 07:30:55;;;;;;;3.42;1.20;;;29.10;83.60;;;;;;7416017;19;20305;-80
2022/06/18 07:36:20;;;;;;;0.90;0.90;;;29.30;77.40;;;;;;7373804;19;20423;-76
2022/06/18 07:38:46;;;;;;;1.10;1.00;;;29.20;76.70;;;;;;7376229;19;21026;-76
2022/06/18 07:41:13;;;;;;;1.30;1.00;;;29.30;75.60;;;;;;7371878;19;20349;-77
2022/06/18 07:43:40;;;;;;;1.65;1.02;;;29.60;75.90;;;;;;7375346;19;20423;-77
2022/06/18 07:46:06;;;;;;;2.35;1.20;;;29.70;74.60;;;;;;7378451;19;20355;-75
2022/06/18 07:48:32;;;;;;;0.80;0.80;;;29.80;74.90;;;;;;7373163;19;20336;-74
2022/06/18 07:50:58;;;;;;;1.08;1.00;;;30.00;68.60;;;;;;7366823;19;20364;-74
2022/06/18 07:53:24;;;;;;;1.00;0.90;;;30.10;70.10;;;;;;7369851;19;20336;-75
2022/06/18 07:55:50;;;;;;;2.47;1.20;;;30.10;68.10;;;;;;7372849;19;20395;-75
2022/06/18 07:58:15;;;;;;;0.90;0.90;;;30.20;71.50;;;;;;7377276;19;20353;-76
2022/06/18 08:00:42;;;;;;;1.00;1.00;;;30.30;68.40;;;;;;7374779;19;20352;-74
2022/06/18 08:03:09;;;;;;;1.10;1.10;;;30.40;66.50;;;;;;7373557;19;20344;-76
2022/06/18 08:05:34;;;;;;;2.25;1.13;;;30.50;66.70;;;;;;7379208;19;20351;-75
2022/06/18 08:08:00;;;;;;;1.67;1.10;;;30.60;66.40;;;;;;7373375;19;20317;-75
2022/06/18 08:10:25;;;;;;;1.00;1.00;;;30.60;63.30;;;;;;7370215;19;20341;-75
2022/06/18 08:12:51;;;;;;;1.10;0.97;;;30.80;66.50;;;;;;7368407;19;20320;-76
2022/06/18 08:15:18;;;;;;;2.40;0.93;;;31.10;66.00;;;;;;7372475;19;20446;-75
2022/06/18 08:17:43;;;;;;;1.40;1.30;;;31.30;64.40;;;;;;7373209;19;20353;-75
2022/06/18 08:20:09;;;;;;;1.10;1.10;;;31.50;63.60;;;;;;7371374;19;20357;-75
2022/06/18 08:22:35;;;;;;;1.10;1.10;;;31.50;61.20;;;;;;7372039;19;20320;-75
2022/06/18 08:25:01;;;;;;;1.20;1.02;;;31.60;61.10;;;;;;7368930;19;20358;-75
2022/06/18 08:27:27;;;;;;;1.00;1.00;;;31.40;60.40;;;;;;7376222;19;20365;-75
2022/06/18 08:29:53;;;;;;;1.00;1.00;;;31.50;61.90;;;;;;7368018;19;20894;-75
2022/06/18 08:32:18;;;;;;;1.20;1.10;;;31.70;62.00;;;;;;7371099;19;20352;-74
2022/06/18 08:34:44;;;;;;;1.20;1.10;;;32.10;60.30;;;;;;7368857;19;20359;-75
2022/06/18 08:37:09;;;;;;;1.10;1.10;;;32.30;61.20;;;;;;7371317;19;21098;-74
2022/06/18 08:39:37;;;;;;;0.95;0.95;;;32.50;63.20;;;;;;7369216;19;20332;-74
2022/06/18 08:42:10;;;;;;;2.63;1.00;;;32.70;60.50;;;;;;7370797;19;20328;-76
2022/06/18 08:44:40;;;;;;;1.00;1.00;;;32.60;59.80;;;;;;7371045;19;20344;-75
2022/06/18 08:47:26;;;;;;;1.50;1.10;;;32.90;59.20;;;;;;7369617;19;20351;-75
2022/06/18 08:50:00;;;;;;;1.75;1.20;;;33.10;56.50;;;;;;7264339;19;2004368;-74
2022/06/18 08:52:52;;;;;;;2.33;1.10;;;33.00;56.70;;;;;;7370177;19;20364;-74
2022/06/18 08:55:28;;;;;;;3.30;1.13;;;33.00;58.80;;;;;;7272279;19;2004725;-76
2022/06/18 08:58:18;;;;;;;1.80;1.15;;;33.40;57.70;;;;;;7372922;19;20329;-77
2022/06/18 09:00:58;;;;;;;1.50;1.20;;;32.90;56.20;;;;;;7373845;19;20824;-76
2022/06/18 09:03:54;;;;;;;1.27;1.27;;;33.40;55.70;;;;;;7271041;19;2007120;-75
2022/06/18 09:06:51;;;;;;;1.23;1.23;;;32.90;54.20;;;;;;7268545;19;2004301;-75
2022/06/18 09:09:44;;;;;;;1.00;1.00;;;32.50;56.60;;;;;;7267364;19;2004319;-75
2022/06/18 09:12:24;;;;;;;1.50;1.10;;;32.80;55.50;;;;;;7372547;19;20360;-76
2022/06/18 09:15:18;;;;;;;1.42;1.30;;;32.50;55.50;;;;;;7262614;19;2019863;-76
2022/06/18 09:17:47;;;;;;;1.17;1.17;;;32.50;56.30;;;;;;7368986;19;20348;-74
2022/06/18 09:20:35;;;;;;;0.90;0.90;;;32.60;55.50;;;;;;7368407;19;20328;-77
2022/06/18 09:23:05;;;;;;;1.10;1.10;;;33.10;54.90;;;;;;7268796;19;2019888;-76
2022/06/18 09:25:34;;;;;;;1.07;1.07;;;33.20;55.30;;;;;;7365223;19;20359;-76
2022/06/18 09:28:04;;;;;;;1.30;1.20;;;33.60;55.20;;;;;;7372895;19;20348;-75
2022/06/18 09:30:35;;;;;;;1.00;1.00;;;34.00;56.30;;;;;;7362858;19;20925;-76
2022/06/18 09:33:14;;;;;;;1.15;1.15;;;33.90;54.80;;;;;;7363339;19;20383;-76
2022/06/18 09:35:51;;;;;;;1.00;1.00;;;33.80;52.40;;;;;;7371434;19;20316;-76
2022/06/18 09:38:32;;;;;;;1.00;1.00;;;33.90;53.50;;;;;;7268104;19;2004433;-76
2022/06/18 09:41:00;;;;;;;1.23;1.20;;;34.20;54.00;;;;;;7375350;19;20920;-76
2022/06/18 09:43:28;;;;;;;1.58;1.10;;;34.40;53.50;;;;;;7380472;19;20363;-74
2022/06/18 09:45:56;;;;;;;1.88;1.10;;;34.50;53.60;;;;;;7374451;19;20331;-75
2022/06/18 09:48:21;;;;;;;1.00;1.00;;;33.60;51.80;;;;;;7376009;19;20336;-76
2022/06/18 09:50:53;;;;;;;1.08;1.05;;;33.40;52.90;;;;;;7375362;19;20449;-75
2022/06/18 09:53:27;;;;;;;1.10;1.10;;;34.10;53.90;;;;;;7375350;19;20701;-77
2022/06/18 09:55:54;;;;;;;1.48;1.38;;;34.00;53.80;;;;;;7377430;19;20329;-76
2022/06/18 09:58:25;;;;;;;1.33;1.27;;;34.60;54.10;;;;;;7387873;19;20668;-77
2022/06/18 10:00:52;;;;;;;1.20;1.20;;;34.90;51.40;;;;;;7384425;19;20348;-75
2022/06/18 10:09:00;;;;;;;1.20;1.20;;;35.50;52.50;;;;;;7276116;19;2005523;-78
2022/06/18 10:11:26;;;;;;;1.27;1.27;;;35.30;49.50;;;;;;7372319;19;20365;-75
2022/06/18 10:13:58;;;;;;;1.35;1.25;;;35.70;51.10;;;;;;7374966;19;20324;-75
2022/06/18 10:16:49;;;;;;;1.00;1.00;;;36.00;51.00;;;;;;7375534;19;20345;-75
2022/06/18 10:19:18;;;;;;;3.47;1.35;;;36.10;51.60;;;;;;7375821;19;20828;-76
2022/06/18 10:21:57;;;;;;;3.90;1.50;;;36.30;50.30;;;;;;7372905;19;20431;-78
2022/06/18 10:24:28;;;;;;;1.30;1.20;;;36.40;50.80;;;;;;7278796;19;2018696;-75
2022/06/18 10:27:02;;;;;;;1.30;1.20;;;34.80;47.00;;;;;;7376625;19;20321;-73
2022/06/18 10:29:39;;;;;;;7.43;2.15;;;34.30;48.80;;;;;;7371888;19;20347;-74
2022/06/18 10:32:24;;;;;;;1.33;1.23;;;34.70;51.30;;;;;;7347689;19;20440;-78
2022/06/18 10:35:09;;;;;;;16.80;2.83;;;35.60;51.60;;;;;;7271523;19;2004512;-75
2022/06/18 10:38:16;;;;;;;1.45;1.35;;;35.30;49.20;;;;;;7373879;19;20350;-75
2022/06/18 10:41:19;;;;;;;3.10;1.77;;;35.90;48.60;;;;;;7273492;19;2004386;-74
2022/06/18 10:44:13;;;;;;;1.17;1.17;;;36.20;49.10;;;;;;7270570;19;2004546;-74
2022/06/18 10:46:39;;;;;;;1.40;1.30;;;36.60;50.00;;;;;;7268877;19;2004381;-74
2022/06/18 10:49:05;;;;;;;3.27;1.20;;;36.60;48.00;;;;;;7380544;19;21175;-75
2022/06/18 10:51:57;;;;;;;1.30;1.13;;;36.70;47.70;;;;;;7373923;19;20336;-74
2022/06/18 10:54:33;;;;;;;1.50;1.40;;;37.20;49.10;;;;;;7272062;19;2004188;-75
2022/06/18 10:56:59;;;;;;;1.52;1.42;;;37.00;45.40;;;;;;7371332;19;20386;-74
2022/06/18 10:59:35;;;;;;;1.95;1.27;;;36.50;47.40;;;;;;7374025;19;20340;-74
2022/06/18 11:02:12;;;;;;;1.10;1.10;;;37.10;46.90;;;;;;7365226;19;20355;-74
2022/06/18 11:04:38;;;;;;;3.07;1.60;;;37.10;45.90;;;;;;7372987;19;20321;-74
2022/06/18 11:07:07;;;;;;;2.20;1.50;;;35.90;44.30;;;;;;7369118;19;20995;-74
2022/06/18 11:09:55;;;;;;;2.57;1.50;;;36.30;47.50;;;;;;7372476;19;20356;-74
2022/06/18 11:12:27;;;;;;;1.50;1.40;;;37.00;46.10;;;;;;7269004;19;2004541;-75
2022/06/18 11:14:52;;;;;;;1.50;1.40;;;36.90;45.60;;;;;;7372055;19;20357;-74
2022/06/18 11:17:32;;;;;;;1.40;1.30;;;36.60;45.80;;;;;;7370856;19;20325;-74
2022/06/18 11:20:11;;;;;;;1.77;1.50;;;36.80;46.60;;;;;;7369930;19;20360;-74
2022/06/18 11:22:37;;;;;;;1.33;1.30;;;37.00;45.20;;;;;;7371134;19;20406;-75
2022/06/18 11:25:04;;;;;;;1.50;1.40;;;37.50;46.20;;;;;;7370145;19;21254;-74
2022/06/18 11:27:34;;;;;;;1.63;1.33;;;37.10;44.30;;;;;;7372297;19;20484;-74
2022/06/18 11:30:04;;;;;;;1.30;1.20;;;36.40;45.10;;;;;;7369129;19;20344;-75
2022/06/18 11:32:36;;;;;;;1.40;1.30;;;36.90;46.60;;;;;;7368760;19;20332;-74
2022/06/18 11:35:08;;;;;;;1.40;1.30;;;35.80;43.80;;;;;;7370879;19;20332;-74
2022/06/18 11:37:33;;;;;;;1.40;1.30;;;37.30;47.40;;;;;;7370144;19;20364;-74
2022/06/18 11:40:11;;;;;;;2.33;2.00;;;37.20;44.40;;;;;;7367596;19;20345;-74
2022/06/18 11:42:40;;;;;;;2.58;2.17;;;37.00;44.60;;;;;;7368118;19;20347;-75
2022/06/18 11:45:16;;;;;;;2.30;1.65;;;37.40;44.50;;;;;;7369015;19;20341;-74
2022/06/18 11:48:03;;;;;;;2.40;1.48;;;36.70;43.80;;;;;;7371680;19;20380;-74
2022/06/18 11:50:46;;;;;;;2.45;1.50;;;36.90;44.30;;;;;;7267647;19;2004270;-74
2022/06/18 11:53:16;;;;;;;2.67;1.43;;;37.30;44.40;;;;;;7371377;19;20301;-74
2022/06/18 11:55:46;;;;;;;1.92;1.45;;;38.00;43.50;;;;;;7369222;19;20317;-74
2022/06/18 11:58:33;;;;;;;4.22;1.52;;;37.90;44.70;;;;;;7372002;19;20346;-77
2022/06/18 12:01:14;;;;;;;1.70;1.60;;;37.70;42.80;;;;;;7264649;19;2004410;-75
2022/06/18 12:03:54;;;;;;;3.07;1.60;;;37.90;43.20;;;;;;7371603;19;20348;-74
2022/06/18 12:06:40;;;;;;;1.90;1.40;;;38.20;43.50;;;;;;7263428;19;2019667;-74
2022/06/18 12:09:07;;;;;;;2.33;1.70;;;37.30;42.00;;;;;;7369815;19;20455;-74
2022/06/18 12:11:46;;;;;;;1.70;1.35;;;37.50;43.00;;;;;;7364780;19;20429;-73
2022/06/18 12:14:19;;;;;;;2.65;1.55;;;37.30;43.50;;;;;;7371145;19;21374;-74
2022/06/18 12:16:55;;;;;;;1.63;1.40;;;37.30;43.10;;;;;;7367883;19;20432;-74
2022/06/18 12:19:46;;;;;;;3.83;2.42;;;38.20;44.00;;;;;;7264087;19;2025415;-73
2022/06/18 12:22:38;;;;;;;1.60;1.50;;;38.20;43.50;;;;;;7367182;19;20396;-75
2022/06/18 12:25:09;;;;;;;1.63;1.52;;;38.40;44.50;;;;;;7265522;19;2004248;-74
2022/06/18 12:27:52;;;;;;;2.05;1.52;;;38.10;45.10;;;;;;7371396;19;20379;-74
2022/06/18 12:30:33;;;;;;;4.30;1.80;;;38.20;44.50;;;;;;7364527;19;20305;-74
2022/06/18 12:33:19;;;;;;;1.52;1.40;;;37.70;43.20;;;;;;7263157;19;2020016;-74
2022/06/18 12:35:45;;;;;;;1.77;1.30;;;38.20;41.90;;;;;;7365512;19;20364;-75
2022/06/18 12:38:16;;;;;;;1.53;1.43;;;38.20;43.70;;;;;;7368823;19;20698;-74
2022/06/18 12:41:06;;;;;;;2.70;1.52;;;38.10;43.50;;;;;;7364270;19;20311;-75
2022/06/18 12:43:53;;;;;;;2.90;1.55;;;38.10;43.50;;;;;;7265932;19;2007069;-75
2022/06/18 12:46:23;;;;;;;1.88;1.40;;;38.80;43.70;;;;;;7368910;19;20344;-74
2022/06/18 12:49:01;;;;;;;3.10;1.97;;;39.50;43.80;;;;;;7369355;19;20782;-74
2022/06/18 12:51:44;;;;;;;2.10;1.50;;;39.30;41.20;;;;;;7262063;19;2004297;-75
2022/06/18 12:54:46;;;;;;;2.72;1.90;;;39.30;43.30;;;;;;7368311;19;20843;-75
2022/06/18 12:57:29;;;;;;;1.70;1.60;;;39.40;39.50;;;;;;7265450;19;2004440;-75
2022/06/18 13:00:10;;;;;;;2.60;1.63;;;40.20;40.50;;;;;;7262565;19;2019826;-74
2022/06/18 13:02:57;;;;;;;1.90;1.77;;;40.00;40.10;;;;;;7363431;19;20405;-74
2022/06/18 13:05:31;;;;;;;4.78;1.80;;;37.80;40.20;;;;;;7265241;19;2004372;-74
2022/06/18 13:08:15;;;;;;;3.50;1.77;;;38.20;42.50;;;;;;7370461;19;20324;-74
2022/06/18 13:11:09;;;;;;;2.10;1.60;;;39.10;42.00;;;;;;7369014;19;20316;-74
2022/06/18 13:13:56;;;;;;;2.88;2.00;;;39.90;42.40;;;;;;7267265;19;2004267;-74
2022/06/18 13:16:54;;;;;;;1.88;1.70;;;39.60;40.80;;;;;;7263899;19;2004302;-74
2022/06/18 13:19:29;;;;;;;3.15;1.80;;;39.50;40.70;;;;;;7365826;19;20667;-74
2022/06/18 13:21:55;;;;;;;3.87;1.80;;;39.20;41.10;;;;;;7259090;19;2019021;-74
2022/06/18 13:30:10;;;;;;;3.40;1.70;;;39.70;42.80;;;;;;7262529;19;2004290;-74
2022/06/18 13:32:50;;;;;;;1.70;1.60;;;39.40;41.70;;;;;;7363904;19;20348;-74
2022/06/18 13:35:40;;;;;;;5.22;1.98;;;39.40;40.80;;;;;;7365825;19;20324;-74
2022/06/18 13:38:37;;;;;;;1.98;1.77;;;39.40;40.70;;;;;;7264488;19;2019700;-74
2022/06/18 13:41:14;;;;;;;2.85;2.10;;;39.80;41.40;;;;;;7257866;19;2004309;-74
2022/06/18 13:43:58;;;;;;;2.00;1.80;;;40.40;42.10;;;;;;7363451;19;20332;-74
2022/06/18 13:46:48;;;;;;;4.70;1.67;;;40.70;41.20;;;;;;7265249;19;2004611;-74
2022/06/18 13:49:43;;;;;;;2.50;1.98;;;40.70;39.90;;;;;;7373385;19;20343;-74
2022/06/18 13:52:09;;;;;;;3.30;1.90;;;39.90;40.30;;;;;;7268842;19;2019879;-74
2022/06/18 13:54:39;;;;;;;2.80;1.97;;;39.90;39.40;;;;;;7376509;19;20332;-74
2022/06/18 13:57:05;;;;;;;4.22;2.15;;;39.60;39.80;;;;;;7369964;19;20982;-74
2022/06/18 13:59:31;;;;;;;7.80;1.92;;;39.30;40.60;;;;;;7374612;19;20313;-74
2022/06/18 14:02:02;;;;;;;2.50;1.85;;;39.00;40.50;;;;;;7366051;19;20438;-74
2022/06/18 14:04:34;;;;;;;5.10;2.55;;;39.00;42.40;;;;;;7376460;19;20336;-74
2022/06/18 14:07:00;;;;;;;2.03;1.80;;;39.60;41.50;;;;;;7373459;19;20328;-73
2022/06/18 14:09:29;;;;;;;2.83;1.60;;;40.00;40.00;;;;;;7371821;19;20348;-74
2022/06/18 14:12:00;;;;;;;2.20;1.70;;;39.90;39.90;;;;;;7370362;19;20352;-73
2022/06/18 14:14:40;;;;;;;5.75;1.98;;;40.10;39.60;;;;;;7372390;19;20352;-73
2022/06/18 14:17:14;;;;;;;5.65;1.80;;;39.80;40.10;;;;;;7368007;19;20999;-73
2022/06/18 14:19:41;;;;;;;4.07;2.05;;;40.00;40.10;;;;;;7370053;19;20440;-74
2022/06/18 14:22:15;;;;;;;2.80;2.05;;;39.70;40.60;;;;;;7365920;19;20420;-73
2022/06/18 14:24:46;;;;;;;3.87;2.07;;;39.70;41.00;;;;;;7371357;19;20332;-73
2022/06/18 14:27:28;;;;;;;2.30;2.00;;;39.90;39.90;;;;;;7367849;19;20340;-73
2022/06/18 14:29:55;;;;;;;4.18;1.83;;;40.20;40.70;;;;;;7265935;19;2004408;-74
2022/06/18 14:32:27;;;;;;;4.60;2.08;;;40.50;39.20;;;;;;7367635;19;21239;-73
2022/06/18 14:35:03;;;;;;;2.22;1.70;;;39.10;37.50;;;;;;7270627;19;2020541;-73
2022/06/18 14:37:30;;;;;;;2.95;1.88;;;39.10;38.50;;;;;;7373353;19;20344;-74
2022/06/18 14:39:56;;;;;;;2.88;2.15;;;37.90;38.90;;;;;;7366755;19;20359;-74
2022/06/18 14:42:37;;;;;;;2.53;2.00;;;38.30;40.40;;;;;;7370979;19;20324;-73
2022/06/18 14:45:27;;;;;;;2.67;1.73;;;37.80;39.10;;;;;;7266585;19;2020038;-73
2022/06/18 14:48:15;;;;;;;2.83;1.90;;;38.50;41.50;;;;;;7267010;19;2004254;-73
2022/06/18 14:50:58;;;;;;;2.35;1.75;;;38.30;40.00;;;;;;7367228;19;20332;-73
2022/06/18 14:54:09;;;;;;;6.45;2.17;;;38.10;40.40;;;;;;7267071;19;2004454;-73
2022/06/18 14:56:53;;;;;;;6.32;2.47;;;37.90;41.00;;;;;;7266724;19;2004601;-73
2022/06/18 14:59:41;;;;;;;2.28;1.90;;;38.20;41.50;;;;;;7374515;19;20588;-73
2022/06/18 15:02:24;;;;;;;2.22;1.98;;;37.80;39.80;;;;;;7265955;19;2004873;-73
2022/06/18 15:04:52;;;;;;;5.18;1.92;;;38.00;40.40;;;;;;7370245;19;20765;-73
2022/06/18 15:07:17;;;;;;;3.78;2.05;;;37.50;40.20;;;;;;7370699;19;20317;-73
2022/06/18 15:09:48;;;;;;;3.20;1.98;;;37.30;40.80;;;;;;7367086;19;20689;-73
2022/06/18 15:12:14;;;;;;;2.88;1.73;;;37.10;41.90;;;;;;7369903;19;20340;-72
2022/06/18 15:14:46;;;;;;;1.83;1.70;;;37.20;40.30;;;;;;7374597;19;20344;-73
2022/06/18 15:19:54;;;;;;;4.97;2.25;;;37.00;41.80;;;;;;7369923;19;20305;-74
2022/06/18 15:27:44;;;;;;;6.05;2.05;;;36.10;42.20;;;;;;7374312;19;20340;-73
2022/06/18 15:30:48;;;;;;;2.90;1.88;;;36.10;42.10;;;;;;7373788;19;20333;-72
2022/06/18 15:33:13;;;;;;;6.13;1.98;;;36.00;43.20;;;;;;7270546;19;2004447;-72
2022/06/18 15:35:44;;;;;;;4.33;2.03;;;35.60;42.70;;;;;;7369937;19;20349;-72
2022/06/18 15:38:39;;;;;;;5.50;2.38;;;35.40;42.90;;;;;;7372614;19;20391;-72
2022/06/18 15:41:09;;;;;;;12.73;3.00;;;35.30;43.20;;;;;;7264209;19;2007304;-72
2022/06/18 15:43:47;;;;;;;7.40;2.10;;;35.20;44.40;;;;;;7370058;19;21150;-72
2022/06/18 15:46:19;;;;;;;3.55;2.20;;;35.40;44.00;;;;;;6065816;19;10000867;-72
2022/06/18 15:48:47;;;;;;;4.20;2.17;;;35.40;43.80;;;;;;7368100;19;20324;-72
2022/06/18 15:51:22;;;;;;;2.55;1.92;;;35.40;43.80;;;;;;7362220;19;20321;-72
2022/06/18 15:54:09;;;;;;;3.43;2.10;;;35.40;44.00;;;;;;7367439;19;20320;-72
2022/06/18 15:56:38;;;;;;;3.20;1.98;;;35.40;44.10;;;;;;7262926;19;2004417;-71
2022/06/18 15:59:04;;;;;;;1.92;1.80;;;35.40;44.10;;;;;;7367856;19;20353;-72
2022/06/18 16:01:30;;;;;;;6.00;1.92;;;35.20;44.90;;;;;;7362795;19;20336;-72
2022/06/18 16:03:56;;;;;;;7.03;2.10;;;35.10;44.10;;;;;;7364836;19;20957;-72
2022/06/18 16:06:21;;;;;;;4.93;2.30;;;35.10;44.10;;;;;;7366809;19;20305;-72
2022/06/18 16:09:12;;;;;;;3.13;2.10;;;35.00;44.40;;;;;;7365022;19;20323;-72
2022/06/18 16:11:39;;;;;;;5.28;2.17;;;35.00;43.90;;;;;;7266421;19;2004390;-72
2022/06/18 16:14:13;;;;;;;3.40;2.13;;;34.70;44.30;;;;;;7368562;19;20425;-73
2022/06/18 16:17:03;;;;;;;2.70;2.10;;;34.40;45.70;;;;;;7364891;19;20371;-72
2022/06/18 16:19:41;;;;;;;3.03;2.10;;;34.40;44.80;;;;;;7262577;19;2019741;-72
2022/06/18 16:22:22;;;;;;;3.88;2.42;;;34.40;45.20;;;;;;7363889;19;20352;-72
2022/06/18 16:24:48;;;;;;;2.58;2.20;;;34.50;46.00;;;;;;7366768;19;20321;-72
2022/06/18 16:27:41;;;;;;;4.18;2.53;;;34.60;45.90;;;;;;7367854;19;20677;-72
2022/06/18 16:30:12;;;;;;;4.22;2.60;;;34.40;45.90;;;;;;7265623;19;2004372;-72
2022/06/18 16:32:41;;;;;;;4.63;2.33;;;34.40;46.70;;;;;;7367743;19;20871;-72
2022/06/18 16:35:12;;;;;;;5.22;2.20;;;34.10;46.70;;;;;;7367995;19;20348;-72
2022/06/18 16:37:38;;;;;;;5.43;2.13;;;34.20;47.00;;;;;;7373148;19;20679;-75
2022/06/18 16:40:07;;;;;;;4.20;2.40;;;34.20;48.30;;;;;;7370177;19;20325;-73
2022/06/18 16:42:47;;;;;;;3.55;2.20;;;34.20;47.90;;;;;;7367295;19;20324;-73
2022/06/18 16:45:22;;;;;;;4.20;2.17;;;34.30;48.10;;;;;;7369503;19;20328;-73
2022/06/18 16:47:49;;;;;;;3.40;2.20;;;34.10;48.60;;;;;;7371207;19;20323;-74
2022/06/18 16:50:15;;;;;;;3.25;2.08;;;34.10;49.50;;;;;;7363766;19;20332;-73
2022/06/18 16:52:41;;;;;;;3.17;2.10;;;34.00;49.00;;;;;;7366875;19;20964;-73
2022/06/18 16:55:19;;;;;;;6.13;2.35;;;34.00;49.50;;;;;;7371099;19;20339;-73
2022/06/18 16:57:45;;;;;;;2.47;2.03;;;34.00;49.40;;;;;;7371013;19;20344;-73
2022/06/18 17:00:24;;;;;;;4.40;2.37;;;33.90;48.20;;;;;;7366997;19;20868;-73
2022/06/18 17:02:49;;;;;;;4.30;2.05;;;33.90;50.90;;;;;;7367294;19;20315;-73
2022/06/18 17:05:15;;;;;;;2.78;1.75;;;33.90;50.50;;;;;;7370211;19;20320;-73
2022/06/18 17:07:41;;;;;;;3.70;2.38;;;33.90;50.30;;;;;;7372533;19;20361;-73
2022/06/18 17:10:19;;;;;;;2.95;2.33;;;33.90;50.70;;;;;;7367261;19;20420;-73
2022/06/18 17:12:44;;;;;;;6.10;2.40;;;33.80;49.50;;;;;;7369268;19;20988;-73
2022/06/18 17:15:10;;;;;;;5.67;2.47;;;33.80;50.60;;;;;;7369697;19;20309;-73
2022/06/18 17:17:36;;;;;;;3.30;2.08;;;33.80;50.90;;;;;;7372738;19;20417;-72
2022/06/18 17:20:01;;;;;;;5.32;2.33;;;33.70;51.70;;;;;;7373498;19;20328;-73
2022/06/18 17:22:27;;;;;;;3.45;2.30;;;33.60;51.20;;;;;;7386120;19;20798;-73
2022/06/18 17:33:06;;;;;;;6.68;2.55;;;33.50;52.10;;;;;;7277509;19;2004436;-73
2022/06/18 17:35:32;;;;;;;3.30;2.00;;;33.40;52.40;;;;;;7381338;19;20336;-73
2022/06/18 17:37:57;;;;;;;6.70;2.60;;;33.40;52.20;;;;;;7381828;19;20909;-73
2022/06/18 17:40:23;;;;;;;5.32;2.17;;;33.30;52.80;;;;;;7379038;19;20305;-73
2022/06/18 17:42:49;;;;;;;5.05;2.40;;;33.20;53.10;;;;;;7382129;19;20918;-73
2022/06/18 17:45:15;;;;;;;6.60;3.15;;;33.20;52.90;;;;;;7383924;19;20360;-73
2022/06/18 17:47:40;;;;;;;3.95;2.75;;;33.10;52.90;;;;;;7387487;19;20380;-74
2022/06/18 17:50:06;;;;;;;5.40;3.10;;;33.00;52.30;;;;;;7382715;19;21099;-73
2022/06/18 17:52:32;;;;;;;2.90;2.60;;;32.90;53.80;;;;;;7386876;19;20335;-73
2022/06/18 17:54:58;;;;;;;5.80;2.90;;;32.70;54.00;;;;;;7385453;19;20316;-73
2022/06/18 17:57:23;;;;;;;7.60;4.43;;;32.70;54.20;;;;;;7387121;19;20335;-74
2022/06/18 17:59:49;;;;;;;6.80;4.63;;;32.60;55.30;;;;;;7384453;19;20312;-74
2022/06/18 18:02:28;;;;;;;6.47;3.63;;;32.60;55.00;;;;;;7381251;19;21200;-73
2022/06/18 18:04:55;;;;;;;6.45;3.70;;;32.40;54.70;;;;;;7281932;19;2013400;-73
2022/06/18 18:07:21;;;;;;;7.67;2.97;;;32.30;55.00;;;;;;7387379;19;20367;-74
2022/06/18 18:09:48;;;;;;;7.70;2.75;;;32.20;55.60;;;;;;7383836;19;20328;-74
2022/06/18 18:12:18;;;;;;;8.55;5.28;;;32.20;56.40;;;;;;7384035;19;20328;-74
2022/06/18 18:14:45;;;;;;;6.43;3.60;;;32.10;56.20;;;;;;7383604;19;20335;-74
2022/06/18 18:17:11;;;;;;;6.93;3.80;;;32.00;56.30;;;;;;7378822;19;20332;-73
2022/06/18 18:19:37;;;;;;;5.45;2.90;;;31.90;56.00;;;;;;7381227;19;20340;-73
2022/06/18 18:22:03;;;;;;;2.90;2.40;;;31.80;56.20;;;;;;7378315;19;20336;-73
2022/06/18 18:24:29;;;;;;;3.38;2.38;;;31.90;57.70;;;;;;7384173;19;20935;-73
2022/06/18 18:27:00;;;;;;;4.50;2.43;;;31.90;57.70;;;;;;7380089;19;20324;-74
2022/06/18 18:29:26;;;;;;;6.90;2.95;;;31.90;57.20;;;;;;7378066;19;20353;-74
2022/06/18 18:31:55;;;;;;;5.83;2.90;;;31.80;57.20;;;;;;7376311;19;20788;-74
2022/06/18 18:34:20;;;;;;;4.60;2.75;;;31.70;57.40;;;;;;7381406;19;20399;-74
2022/06/18 18:36:46;;;;;;;6.28;2.50;;;31.60;57.50;;;;;;7384499;19;20888;-73
2022/06/18 18:39:11;;;;;;;3.53;2.78;;;31.60;57.60;;;;;;7379905;19;21303;-74
2022/06/18 18:41:37;;;;;;;3.15;2.85;;;31.50;57.90;;;;;;7377025;19;20325;-73
2022/06/18 18:44:04;;;;;;;7.72;3.17;;;31.40;58.90;;;;;;7379253;19;20324;-73
2022/06/18 18:46:30;;;;;;;4.20;2.78;;;31.20;58.80;;;;;;7378488;19;20341;-74
2022/06/18 18:48:56;;;;;;;4.28;2.60;;;31.10;60.70;;;;;;7382812;19;20324;-74
2022/06/18 18:51:21;;;;;;;5.55;3.00;;;31.00;59.30;;;;;;7373867;19;20839;-73
2022/06/18 18:53:48;;;;;;;3.93;2.93;;;31.00;59.30;;;;;;7379979;19;20316;-74
2022/06/18 18:56:14;;;;;;;4.23;3.10;;;30.90;59.50;;;;;;7375541;19;20319;-73
2022/06/18 18:58:40;;;;;;;6.93;3.45;;;30.80;59.70;;;;;;7378676;19;20392;-73
2022/06/18 19:01:06;;;;;;;6.23;3.07;;;30.60;60.10;;;;;;7351062;19;20989;-73